Time;durP1;ratioP1;P1;durP2;ratioP2;P2;SDS_P1;SDS_P2;PMS_P1;PMS_P2;Temp;Humidity;BMP_temperature;BMP_pressure;BME280_temperature;BME280_humidity;BME280_pressure;Samples;Min_cycle;Max_cycle;Signal;HPM_P1;HPM_P2
2022/09/30 00:00:55;;;;;;;23.47;6.20;;;;;;;8.76;100.00;95319.03;5038146;28;21368;-70
2022/09/30 00:03:22;;;;;;;32.83;7.30;;;;;;;8.84;100.00;95318.09;5038097;28;20215;-71
2022/09/30 00:05:56;;;;;;;25.73;7.03;;;;;;;9.02;100.00;95315.84;5038219;28;20213;-69
2022/09/30 00:08:22;;;;;;;36.97;7.37;;;;;;;8.84;100.00;95315.47;5039066;28;20201;-69
2022/09/30 00:10:58;;;;;;;42.73;7.93;;;;;;;8.93;100.00;95309.88;5038283;28;20228;-69
2022/09/30 00:13:26;;;;;;;45.90;8.33;;;;;;;8.93;100.00;95320.41;5037995;28;20898;-69
2022/09/30 00:15:53;;;;;;;36.53;7.90;;;;;;;8.82;100.00;95325.34;5038248;28;20202;-69
2022/09/30 00:18:19;;;;;;;44.13;8.00;;;;;;;8.94;100.00;95322.03;5038765;28;20211;-69
2022/09/30 00:20:46;;;;;;;40.83;7.67;;;;;;;8.96;100.00;95324.47;5037978;28;20983;-69
2022/09/30 00:23:12;;;;;;;34.57;8.13;;;;;;;9.01;100.00;95328.13;5037148;28;20215;-69
2022/09/30 00:25:39;;;;;;;32.87;7.50;;;;;;;8.97;100.00;95329.53;5038196;28;20205;-69
2022/09/30 00:28:06;;;;;;;28.87;7.73;;;;;;;9.01;100.00;95335.22;5038860;28;20201;-69
2022/09/30 00:30:34;;;;;;;35.23;7.93;;;;;;;9.02;100.00;95340.28;5038262;28;20311;-69
2022/09/30 00:33:01;;;;;;;29.27;8.27;;;;;;;9.00;100.00;95346.72;5037354;28;20201;-69
2022/09/30 00:35:28;;;;;;;24.03;7.30;;;;;;;9.04;100.00;95351.44;5038271;28;20201;-69
2022/09/30 00:37:55;;;;;;;32.77;7.87;;;;;;;9.09;100.00;95363.00;5037832;28;20307;-69
2022/09/30 00:40:22;;;;;;;27.13;7.73;;;;;;;9.12;100.00;95367.06;5037863;28;20286;-69
2022/09/30 00:42:49;;;;;;;29.30;7.77;;;;;;;9.04;100.00;95367.19;5037532;28;20197;-69
2022/09/30 00:45:16;;;;;;;36.27;7.83;;;;;;;9.05;100.00;95368.00;5037836;28;20209;-69
2022/09/30 00:47:51;;;;;;;16.30;7.37;;;;;;;9.19;100.00;95373.19;5037329;28;20259;-69
2022/09/30 00:50:27;;;;;;;32.87;8.20;;;;;;;9.20;100.00;95377.44;5037943;28;20227;-69
2022/09/30 00:52:59;;;;;;;18.20;7.27;;;;;;;9.12;100.00;95378.38;5037168;28;20587;-69
2022/09/30 00:55:33;;;;;;;20.13;7.30;;;;;;;9.17;100.00;95375.19;5037474;28;20216;-69
2022/09/30 00:58:02;;;;;;;33.47;8.17;;;;;;;9.19;100.00;95379.25;5036976;28;20697;-69
2022/09/30 01:00:29;;;;;;;16.10;7.67;;;;;;;9.09;100.00;95377.97;5037549;28;20233;-69
2022/09/30 01:02:57;;;;;;;19.23;7.50;;;;;;;9.14;100.00;95386.88;5036499;28;20215;-69
2022/09/30 01:05:26;;;;;;;23.00;7.07;;;;;;;9.17;100.00;95383.88;5038029;28;20216;-69
2022/09/30 01:07:56;;;;;;;23.00;8.13;;;;;;;9.17;100.00;95388.31;5038118;28;20194;-69
2022/09/30 01:10:22;;;;;;;18.90;8.10;;;;;;;9.10;100.00;95387.47;5036557;28;20225;-69
2022/09/30 01:12:49;;;;;;;20.80;8.43;;;;;;;9.11;100.00;95397.78;5036234;28;20209;-69
2022/09/30 01:15:16;;;;;;;33.83;8.47;;;;;;;9.11;100.00;95397.78;5037647;28;20205;-69
2022/09/30 01:17:53;;;;;;;29.90;7.67;;;;;;;9.19;100.00;95395.03;5036879;28;20255;-69
2022/09/30 01:21:04;;;;;;;29.87;8.33;;;;;;;9.17;100.00;95393.59;5037190;28;20232;-69
2022/09/30 01:23:56;;;;;;;31.53;7.97;;;;;;;9.19;100.00;95384.50;4974399;28;20207;-69
2022/09/30 01:27:05;;;;;;;19.97;7.77;;;;;;;9.25;100.00;95383.78;5032969;28;20208;-69
2022/09/30 01:30:04;;;;;;;33.57;7.83;;;;;;;9.13;100.00;95379.19;5029581;28;20228;-69
2022/09/30 01:33:03;;;;;;;24.80;7.77;;;;;;;9.14;100.00;95383.47;5033557;28;20204;-69
2022/09/30 01:35:41;;;;;;;20.97;7.90;;;;;;;9.12;100.00;95378.38;5032588;28;20213;-69
2022/09/30 01:38:15;;;;;;;24.07;7.70;;;;;;;8.93;100.00;95383.44;5037279;28;20677;-69
2022/09/30 01:40:46;;;;;;;28.43;8.60;;;;;;;8.96;100.00;95382.25;5036843;28;20229;-69
2022/09/30 01:43:23;;;;;;;31.00;8.50;;;;;;;8.88;100.00;95380.56;5035971;28;20205;-69
2022/09/30 01:45:58;;;;;;;17.10;7.83;;;;;;;8.92;100.00;95387.06;5037156;28;20240;-69
2022/09/30 01:48:33;;;;;;;29.00;7.80;;;;;;;8.90;100.00;95383.84;5036352;28;20750;-69
2022/09/30 01:51:06;;;;;;;17.30;8.07;;;;;;;8.93;100.00;95387.91;5036975;28;20314;-69
2022/09/30 01:53:40;;;;;;;23.73;8.50;;;;;;;9.02;100.00;95392.03;5036606;28;20205;-69
2022/09/30 01:56:13;;;;;;;45.37;9.63;;;;;;;9.12;100.00;95388.06;5037011;28;20221;-69
2022/09/30 01:58:44;;;;;;;48.53;10.00;;;;;;;9.13;100.00;95400.22;5036815;28;20209;-69
2022/09/30 02:01:20;;;;;;;64.90;10.10;;;;;;;9.19;100.00;95396.84;5036661;28;20232;-69
2022/09/30 02:03:52;;;;;;;30.20;9.90;;;;;;;9.16;100.00;95403.28;5036476;28;21013;-69
2022/09/30 02:06:24;;;;;;;47.70;9.23;;;;;;;9.15;100.00;95409.56;5034765;28;20209;-69
2022/09/30 02:08:56;;;;;;;73.10;10.40;;;;;;;9.22;100.00;95409.59;5036443;28;20212;-69
2022/09/30 02:11:26;;;;;;;47.93;9.53;;;;;;;9.18;100.00;95409.16;5036737;28;20232;-69
2022/09/30 02:13:58;;;;;;;48.20;8.73;;;;;;;9.05;100.00;95403.00;5035944;28;20205;-69
2022/09/30 02:16:32;;;;;;;42.90;10.73;;;;;;;9.13;100.00;95405.47;5036610;28;20213;-69
2022/09/30 02:19:06;;;;;;;57.13;10.00;;;;;;;9.15;100.00;95409.56;5036605;28;20201;-69
2022/09/30 02:21:37;;;;;;;61.93;10.60;;;;;;;9.16;100.00;95405.94;5036755;28;20213;-69
2022/09/30 02:24:08;;;;;;;66.57;10.27;;;;;;;9.13;100.00;95405.47;5040383;28;20209;-69
2022/09/30 02:26:38;;;;;;;44.93;9.70;;;;;;;9.04;100.00;95414.50;5040614;28;20211;-69
2022/09/30 02:29:11;;;;;;;30.43;9.60;;;;;;;9.04;100.00;95411.03;5040592;28;20209;-69
2022/09/30 02:31:41;;;;;;;60.37;9.77;;;;;;;9.08;100.00;95413.13;5040423;28;20730;-69
2022/09/30 02:34:14;;;;;;;44.63;10.37;;;;;;;9.10;100.00;95401.41;5039948;28;20209;-69
2022/09/30 02:36:45;;;;;;;28.07;9.67;;;;;;;9.08;100.00;95407.84;5040505;28;20594;-69
2022/09/30 02:39:21;;;;;;;22.97;8.73;;;;;;;9.12;100.00;95411.72;5040078;28;20205;-68
2022/09/30 02:41:51;;;;;;;45.83;10.20;;;;;;;9.02;100.00;95415.69;5040269;28;20282;-68
2022/09/30 02:44:18;;;;;;;31.27;10.50;;;;;;;9.07;100.00;95421.19;5040172;28;20197;-68
2022/09/30 02:46:53;;;;;;;43.93;9.27;;;;;;;9.08;100.00;95419.16;5040348;28;20211;-68
2022/09/30 02:49:29;;;;;;;39.07;10.17;;;;;;;9.08;100.00;95423.63;5039526;28;20235;-68
2022/09/30 02:52:11;;;;;;;39.10;11.00;;;;;;;9.05;100.00;95418.75;5040611;28;20216;-68
2022/09/30 02:54:50;;;;;;;53.47;9.67;;;;;;;8.99;100.00;95414.25;5039913;28;20209;-68
2022/09/30 02:57:26;;;;;;;45.40;10.73;;;;;;;8.83;100.00;95414.47;5039928;28;20205;-69
2022/09/30 02:59:52;;;;;;;47.37;10.47;;;;;;;8.84;100.00;95412.66;5039645;28;20589;-69
2022/09/30 03:02:20;;;;;;;21.90;9.27;;;;;;;8.86;100.00;95421.16;5039749;28;20229;-68
2022/09/30 03:04:50;;;;;;;43.77;9.80;;;;;;;8.90;100.00;95431.13;5039699;28;20252;-68
2022/09/30 03:07:17;;;;;;;57.67;10.53;;;;;;;8.90;100.00;95423.25;5040229;28;20236;-68
2022/09/30 03:09:43;;;;;;;39.63;10.40;;;;;;;8.88;100.00;95427.84;5039545;28;20221;-68
2022/09/30 03:12:19;;;;;;;30.37;10.77;;;;;;;8.97;100.00;95432.00;5039983;28;20212;-67
2022/09/30 03:15:03;;;;;;;34.63;10.07;;;;;;;8.92;100.00;95434.34;5039614;28;20216;-68
2022/09/30 03:17:45;;;;;;;29.53;10.03;;;;;;;9.02;100.00;95444.59;5039781;28;20205;-68
2022/09/30 03:20:30;;;;;;;27.27;10.47;;;;;;;9.03;100.00;95441.75;5039275;28;20681;-68
2022/09/30 03:23:10;;;;;;;22.73;8.80;;;;;;;9.08;100.00;95444.66;5038868;28;20274;-68
2022/09/30 03:25:47;;;;;;;35.67;10.20;;;;;;;9.04;100.00;95447.81;5039838;28;20209;-68
2022/09/30 03:28:23;;;;;;;41.63;9.27;;;;;;;9.12;100.00;95451.16;5039329;28;20201;-68
2022/09/30 03:31:02;;;;;;;30.07;9.27;;;;;;;9.18;100.00;95455.66;5039540;28;20232;-68
2022/09/30 03:33:37;;;;;;;41.17;9.60;;;;;;;9.06;100.00;95457.16;5038624;28;20200;-68
2022/09/30 03:36:09;;;;;;;33.20;9.93;;;;;;;9.10;100.00;95458.44;5039294;28;20201;-68
2022/09/30 03:38:47;;;;;;;34.17;11.73;;;;;;;9.11;100.00;95466.13;5039560;28;20198;-68
2022/09/30 03:41:20;;;;;;;30.30;10.13;;;;;;;9.15;100.00;95463.91;5039523;28;20239;-68
2022/09/30 03:43:51;;;;;;;34.27;9.40;;;;;;;9.03;100.00;95469.88;5038785;28;20266;-68
2022/09/30 03:46:23;;;;;;;25.43;9.07;;;;;;;9.09;100.00;95473.34;5039299;28;20211;-68
2022/09/30 03:48:54;;;;;;;39.60;9.53;;;;;;;9.02;100.00;95476.13;5039188;28;20213;-68
2022/09/30 03:51:23;;;;;;;25.00;9.40;;;;;;;9.04;100.00;95477.56;5038921;28;20224;-68
2022/09/30 03:53:52;;;;;;;24.83;8.53;;;;;;;8.93;100.00;95477.22;5037983;28;21151;-68
2022/09/30 03:56:25;;;;;;;33.37;8.93;;;;;;;9.08;100.00;95471.72;5039046;28;20323;-68
2022/09/30 03:58:51;;;;;;;24.77;9.17;;;;;;;8.88;100.00;95479.59;5039038;28;20251;-68
2022/09/30 04:01:20;;;;;;;27.20;9.30;;;;;;;9.00;100.00;95476.31;5038586;28;20236;-69
2022/09/30 04:03:47;;;;;;;22.03;8.50;;;;;;;9.05;100.00;95476.56;5038977;28;20315;-68
2022/09/30 04:06:14;;;;;;;25.30;9.33;;;;;;;9.14;100.00;95485.97;5039042;28;20224;-69
2022/09/30 04:08:43;;;;;;;34.60;9.07;;;;;;;9.04;100.00;95490.69;5037916;28;20205;-68
2022/09/30 04:11:09;;;;;;;35.53;9.00;;;;;;;9.06;100.00;95488.69;5038394;28;20278;-68
2022/09/30 04:13:36;;;;;;;22.57;9.33;;;;;;;9.05;100.00;95488.88;5038408;28;20209;-68
2022/09/30 04:16:03;;;;;;;25.57;9.57;;;;;;;9.03;100.00;95496.94;5039446;28;20208;-68
2022/09/30 04:18:30;;;;;;;26.17;9.50;;;;;;;8.96;100.00;95495.22;5038303;28;20208;-68
2022/09/30 04:20:56;;;;;;;39.67;9.20;;;;;;;8.93;100.00;95488.53;5037966;28;21193;-68
2022/09/30 04:23:23;;;;;;;26.13;8.80;;;;;;;8.91;100.00;95495.81;5038354;28;20225;-68
2022/09/30 04:25:55;;;;;;;30.37;9.33;;;;;;;9.03;100.00;95494.31;5037905;28;20205;-69
2022/09/30 04:28:22;;;;;;;26.93;9.70;;;;;;;8.93;100.00;95504.31;5037809;28;21034;-69
2022/09/30 04:30:48;;;;;;;38.43;10.30;;;;;;;8.91;100.00;95501.06;5038219;28;20217;-68
2022/09/30 04:33:15;;;;;;;27.23;8.97;;;;;;;8.94;100.00;95495.44;5037846;28;20198;-68
2022/09/30 04:35:41;;;;;;;29.37;9.03;;;;;;;8.85;100.00;95491.28;5038008;28;20677;-68
2022/09/30 04:38:08;;;;;;;27.60;9.00;;;;;;;8.73;100.00;95486.69;5038067;28;20201;-68
2022/09/30 04:40:37;;;;;;;58.90;10.33;;;;;;;8.87;100.00;95491.09;5038405;28;20636;-68
2022/09/30 04:43:05;;;;;;;26.33;9.83;;;;;;;8.96;100.00;95487.34;5037636;28;20229;-68
2022/09/30 04:45:32;;;;;;;25.47;9.33;;;;;;;8.93;100.00;95490.38;5038033;28;21056;-68
2022/09/30 04:47:58;;;;;;;30.57;9.70;;;;;;;8.95;100.00;95502.31;5037554;28;20582;-68
2022/09/30 04:50:25;;;;;;;33.33;9.87;;;;;;;8.69;100.00;95502.00;5035761;28;20333;-69
2022/09/30 04:52:51;;;;;;;40.27;8.93;;;;;;;8.64;100.00;95514.88;5037149;28;20208;-68
2022/09/30 04:55:18;;;;;;;28.80;9.97;;;;;;;8.76;100.00;95523.09;5038399;28;20201;-69
2022/09/30 04:57:45;;;;;;;33.60;9.83;;;;;;;8.84;100.00;95531.66;5037886;28;20501;-69
2022/09/30 05:00:13;;;;;;;25.33;10.17;;;;;;;8.94;100.00;95523.53;5037420;28;20237;-69
2022/09/30 05:02:42;;;;;;;31.90;10.67;;;;;;;8.94;100.00;95532.22;5036829;28;20236;-68
2022/09/30 05:05:09;;;;;;;31.63;9.57;;;;;;;8.96;100.00;95527.59;5037426;28;20201;-70
2022/09/30 05:07:36;;;;;;;30.37;10.00;;;;;;;8.92;100.00;95528.94;5037508;28;20209;-69
2022/09/30 05:10:02;;;;;;;32.70;11.20;;;;;;;8.98;100.00;95533.47;5037553;28;20232;-70
2022/09/30 05:12:29;;;;;;;32.60;9.70;;;;;;;8.97;100.00;95531.84;5036882;28;20201;-69
2022/09/30 05:14:55;;;;;;;29.30;10.93;;;;;;;9.04;100.00;95531.91;5036939;28;20220;-69
2022/09/30 05:17:23;;;;;;;31.60;10.70;;;;;;;9.08;100.00;95526.13;5037228;28;20205;-69
2022/09/30 05:19:49;;;;;;;27.67;9.40;;;;;;;9.00;100.00;95528.03;5037258;28;20221;-70
2022/09/30 05:22:16;;;;;;;40.17;9.90;;;;;;;8.97;100.00;95529.19;5036664;28;20224;-69
2022/09/30 05:24:42;;;;;;;25.67;9.60;;;;;;;9.00;100.00;95520.97;5037042;28;20205;-69
2022/09/30 05:27:09;;;;;;;38.37;9.97;;;;;;;8.98;100.00;95517.69;5036640;28;20685;-69
2022/09/30 05:29:35;;;;;;;43.07;10.93;;;;;;;9.08;100.00;95527.94;5037088;28;20232;-69
2022/09/30 05:32:02;;;;;;;45.37;10.70;;;;;;;9.01;100.00;95532.28;5036794;28;20208;-69
2022/09/30 05:34:30;;;;;;;47.23;11.13;;;;;;;9.00;100.00;95536.75;5036771;28;20232;-69
2022/09/30 05:36:56;;;;;;;30.83;10.13;;;;;;;9.02;100.00;95539.19;5037964;28;20247;-69
2022/09/30 05:39:23;;;;;;;32.57;10.27;;;;;;;8.89;100.00;95550.34;5036868;28;20224;-69
2022/09/30 05:41:49;;;;;;;38.53;10.47;;;;;;;8.86;100.00;95550.72;5036883;28;20213;-69
2022/09/30 05:44:16;;;;;;;38.80;11.17;;;;;;;8.76;100.00;95560.69;5036378;28;20216;-69
2022/09/30 05:46:43;;;;;;;30.00;9.80;;;;;;;8.88;100.00;95556.56;5036237;28;20693;-69
2022/09/30 05:49:09;;;;;;;28.70;10.23;;;;;;;8.99;100.00;95556.13;5036677;28;20656;-69
2022/09/30 05:51:37;;;;;;;36.10;10.60;;;;;;;9.14;100.00;95557.72;5035957;28;20201;-68
2022/09/30 05:54:04;;;;;;;42.60;10.87;;;;;;;9.10;100.00;95563.53;5035016;28;20595;-69
2022/09/30 05:56:31;;;;;;;39.53;12.33;;;;;;;9.12;100.00;95566.78;5036029;28;20205;-69
2022/09/30 05:58:57;;;;;;;43.40;12.23;;;;;;;9.00;100.00;95572.69;5036756;28;20225;-69
2022/09/30 06:01:24;;;;;;;34.17;11.03;;;;;;;9.00;100.00;95572.69;5036556;28;20259;-69
2022/09/30 06:03:50;;;;;;;32.93;11.57;;;;;;;9.08;100.00;95574.22;5035795;28;20229;-69
2022/09/30 06:06:18;;;;;;;34.90;10.80;;;;;;;9.08;100.00;95578.66;5036419;28;20205;-69
2022/09/30 06:08:45;;;;;;;41.80;10.20;;;;;;;9.05;100.00;95586.09;5036553;28;20212;-69
2022/09/30 06:11:14;;;;;;;32.53;11.30;;;;;;;9.16;100.00;95583.81;5037015;28;20220;-69
2022/09/30 06:13:42;;;;;;;39.23;11.23;;;;;;;9.22;100.00;95583.88;5035811;28;20201;-69
2022/09/30 06:16:10;;;;;;;30.30;10.67;;;;;;;9.15;100.00;95592.69;5036790;28;20216;-69
2022/09/30 06:18:39;;;;;;;36.73;10.27;;;;;;;9.05;100.00;95602.69;5036485;28;20212;-69
2022/09/30 06:21:06;;;;;;;33.97;9.83;;;;;;;9.07;100.00;95600.69;5036470;28;20221;-69
2022/09/30 06:23:33;;;;;;;31.67;8.43;;;;;;;9.19;100.00;95604.50;5035793;28;20243;-69
2022/09/30 06:26:03;;;;;;;26.80;8.87;;;;;;;9.25;100.00;95609.00;5036839;28;20213;-69
2022/09/30 06:28:32;;;;;;;26.30;9.27;;;;;;;9.20;100.00;95616.63;5035739;28;20205;-69
2022/09/30 06:30:59;;;;;;;25.23;8.60;;;;;;;9.24;100.00;95612.63;5036115;28;20235;-70
2022/09/30 06:33:26;;;;;;;30.13;8.83;;;;;;;9.30;100.00;95617.16;5034151;28;20205;-69
2022/09/30 06:35:53;;;;;;;29.63;9.37;;;;;;;9.28;100.00;95619.16;5036795;28;20197;-70
2022/09/30 06:38:21;;;;;;;26.20;8.10;;;;;;;9.26;100.00;95615.88;5036229;28;20585;-69
2022/09/30 06:40:49;;;;;;;30.47;8.40;;;;;;;9.38;100.00;95624.94;5035249;28;20229;-69
2022/09/30 06:43:17;;;;;;;34.80;9.60;;;;;;;9.31;100.00;95627.47;5035709;28;20498;-69
2022/09/30 06:45:45;;;;;;;29.67;7.93;;;;;;;9.09;100.00;95627.63;5035550;28;20459;-69
2022/09/30 06:48:12;;;;;;;23.20;8.70;;;;;;;9.18;100.00;95634.41;5035995;28;20240;-69
2022/09/30 06:50:39;;;;;;;31.33;9.17;;;;;;;9.22;100.00;95633.03;5035976;28;20229;-69
2022/09/30 06:53:07;;;;;;;27.07;8.67;;;;;;;9.34;100.00;95635.03;5034919;28;20218;-69
2022/09/30 06:55:35;;;;;;;34.63;9.53;;;;;;;9.42;100.00;95637.53;5034920;28;20205;-69
2022/09/30 06:58:01;;;;;;;22.73;8.87;;;;;;;9.39;100.00;95645.78;5035979;28;20624;-69
2022/09/30 07:00:29;;;;;;;32.90;9.77;;;;;;;9.50;100.00;95649.78;5035855;28;20661;-69
2022/09/30 07:02:56;;;;;;;25.63;9.70;;;;;;;9.47;100.00;95650.13;5034669;28;20491;-69
2022/09/30 07:05:24;;;;;;;28.43;10.10;;;;;;;9.57;100.00;95650.66;5035845;28;20209;-70
2022/09/30 07:07:51;;;;;;;31.57;10.10;;;;;;;9.54;100.00;95651.03;5035704;28;20208;-69
2022/09/30 07:10:18;;;;;;;24.30;9.10;;;;;;;9.57;100.00;95655.91;5037826;28;20229;-69
2022/09/30 07:12:44;;;;;;;26.33;9.27;;;;;;;9.38;100.00;95656.47;5038321;28;20206;-69
2022/09/30 07:15:11;;;;;;;27.97;9.23;;;;;;;9.55;100.00;95660.56;5039137;28;20209;-69
2022/09/30 07:17:39;;;;;;;24.23;9.13;;;;;;;9.70;100.00;95662.94;5038921;28;20213;-69
2022/09/30 07:20:07;;;;;;;26.37;9.37;;;;;;;9.63;100.00;95661.25;5038659;28;20235;-69
2022/09/30 07:22:33;;;;;;;31.17;9.17;;;;;;;9.54;100.00;95670.22;5038242;28;20650;-69
2022/09/30 07:25:01;;;;;;;30.73;9.60;;;;;;;9.68;100.00;95662.31;5038395;28;20530;-69
2022/09/30 07:27:30;;;;;;;27.97;9.63;;;;;;;9.72;100.00;95660.13;5038944;28;20205;-69
2022/09/30 07:29:58;;;;;;;25.67;9.27;;;;;;;9.61;100.00;95663.25;5038664;28;20225;-69
2022/09/30 07:32:24;;;;;;;23.87;8.63;;;;;;;9.58;100.00;95660.16;5038461;28;20223;-70
2022/09/30 07:34:52;;;;;;;28.60;9.77;;;;;;;9.55;100.00;95653.47;5038471;28;20208;-69
2022/09/30 07:37:20;;;;;;;23.20;8.90;;;;;;;9.50;100.00;95671.59;5038490;28;20369;-69
2022/09/30 07:39:48;;;;;;;28.13;9.53;;;;;;;9.48;100.00;95670.16;5038435;28;20340;-69
2022/09/30 07:42:18;;;;;;;26.93;9.77;;;;;;;9.53;100.00;95675.69;5038352;28;20213;-69
2022/09/30 07:44:45;;;;;;;24.93;8.40;;;;;;;9.52;100.00;95676.69;5038990;28;20208;-69
2022/09/30 07:47:13;;;;;;;25.33;9.50;;;;;;;9.56;100.00;95678.78;5038795;28;20205;-69
2022/09/30 07:49:41;;;;;;;25.50;8.80;;;;;;;9.66;100.00;95681.09;5037702;28;20229;-69
2022/09/30 07:52:11;;;;;;;23.57;8.97;;;;;;;9.87;100.00;95681.97;5038243;28;20602;-69
2022/09/30 07:54:38;;;;;;;31.37;9.73;;;;;;;9.61;100.00;95686.09;5038459;28;20216;-69
2022/09/30 07:57:05;;;;;;;25.13;9.07;;;;;;;9.54;100.00;95687.84;5038239;28;20725;-69
2022/09/30 07:59:34;;;;;;;28.63;8.53;;;;;;;9.74;100.00;95693.16;5038251;28;20236;-70
2022/09/30 08:02:00;;;;;;;27.83;8.17;;;;;;;9.75;100.00;95694.78;5038284;28;20688;-70
2022/09/30 08:04:28;;;;;;;31.67;8.80;;;;;;;9.74;100.00;95698.41;5037228;28;20434;-70
2022/09/30 08:06:56;;;;;;;26.50;8.57;;;;;;;9.87;100.00;95708.28;5038251;28;20233;-69
2022/09/30 08:09:26;;;;;;;23.03;8.03;;;;;;;9.76;100.00;95704.31;5038379;28;20267;-69
2022/09/30 08:11:53;;;;;;;22.73;7.93;;;;;;;9.72;100.00;95705.69;5038223;28;20201;-69
2022/09/30 08:14:21;;;;;;;23.20;7.47;;;;;;;9.88;100.00;95717.81;5037234;28;20256;-69
2022/09/30 08:16:48;;;;;;;23.33;8.10;;;;;;;9.72;100.00;95712.75;5037559;28;20413;-69
2022/09/30 08:19:17;;;;;;;26.37;8.00;;;;;;;9.87;100.00;95719.59;5037982;28;20208;-69
2022/09/30 08:21:43;;;;;;;26.57;8.07;;;;;;;9.86;100.00;95710.09;5037336;28;20479;-69
2022/09/30 08:24:11;;;;;;;21.83;7.80;;;;;;;9.96;100.00;95715.09;5037152;28;20731;-70
2022/09/30 08:26:39;;;;;;;24.30;7.93;;;;;;;10.04;100.00;95707.91;5037794;28;20931;-70
2022/09/30 08:29:06;;;;;;;21.97;7.50;;;;;;;9.98;100.00;95708.63;5037330;28;20216;-70
2022/09/30 08:31:33;;;;;;;22.77;7.63;;;;;;;10.05;100.00;95712.16;5037347;28;21049;-69
2022/09/30 08:34:01;;;;;;;22.00;7.87;;;;;;;10.12;100.00;95720.94;5037262;28;20370;-69
2022/09/30 08:36:28;;;;;;;23.70;7.67;;;;;;;10.05;100.00;95712.16;5037585;28;20691;-70
2022/09/30 08:38:55;;;;;;;22.47;7.80;;;;;;;9.75;100.00;95718.47;5037857;28;20201;-70
2022/09/30 08:41:41;;;;;;;25.93;7.80;;;;;;;9.95;100.00;95721.31;5037341;28;20641;-70
2022/09/30 08:44:25;;;;;;;24.83;8.40;;;;;;;9.83;100.00;95725.44;5036674;28;20291;-70
2022/09/30 08:47:01;;;;;;;27.70;9.27;;;;;;;10.03;100.00;95726.50;5037426;28;20597;-70
2022/09/30 08:49:39;;;;;;;23.60;8.33;;;;;;;10.21;100.00;95722.47;5037007;28;20229;-70
2022/09/30 08:52:12;;;;;;;27.33;9.43;;;;;;;10.14;100.00;95724.19;5037097;28;20510;-70
2022/09/30 08:54:45;;;;;;;29.23;9.00;;;;;;;10.04;100.00;95713.16;5036062;28;20197;-70
2022/09/30 08:57:12;;;;;;;29.60;8.93;;;;;;;10.11;100.00;95724.56;5037838;28;20204;-70
2022/09/30 08:59:44;;;;;;;27.97;9.20;;;;;;;10.18;100.00;95724.63;5036732;28;20229;-70
2022/09/30 09:02:18;;;;;;;23.60;8.33;;;;;;;10.28;100.00;95731.22;5036960;28;20208;-70
2022/09/30 09:04:46;;;;;;;25.50;9.57;;;;;;;10.05;100.00;95733.19;5037776;28;20220;-69
2022/09/30 09:07:22;;;;;;;25.83;8.50;;;;;;;10.32;100.00;95737.75;5037829;28;20205;-70
2022/09/30 09:10:00;;;;;;;28.20;9.47;;;;;;;10.32;100.00;95737.75;5036653;28;20879;-70
2022/09/30 09:12:37;;;;;;;25.77;8.73;;;;;;;10.46;100.00;95750.03;5035678;28;20205;-70
2022/09/30 09:15:26;;;;;;;29.17;9.10;;;;;;;10.23;100.00;95754.66;5036671;28;20258;-70
2022/09/30 09:18:21;;;;;;;27.47;9.23;;;;;;;10.03;100.00;95756.28;5036376;28;20385;-70
2022/09/30 09:20:54;;;;;;;31.90;10.00;;;;;;;10.25;100.00;95763.22;5033601;28;20274;-70
2022/09/30 09:23:21;;;;;;;35.33;10.37;;;;;;;10.18;100.00;95766.75;5036160;28;20229;-70
2022/09/30 09:25:51;;;;;;;26.23;9.57;;;;;;;10.33;100.00;95766.56;5036256;28;20470;-70
2022/09/30 09:28:27;;;;;;;33.67;9.83;;;;;;;10.56;100.00;95764.53;5036733;28;20251;-70
2022/09/30 09:30:58;;;;;;;25.37;8.73;;;;;;;10.32;100.00;95766.72;5036517;28;20220;-70
2022/09/30 09:33:29;;;;;;;28.50;9.30;;;;;;;10.33;100.00;95769.19;5035049;28;20682;-70
2022/09/30 09:36:12;;;;;;;30.23;9.47;;;;;;;10.43;100.00;95776.75;5036820;28;20201;-70
2022/09/30 09:38:52;;;;;;;28.43;8.53;;;;;;;10.47;100.00;95762.22;5036499;28;20488;-70
2022/09/30 09:41:29;;;;;;;29.00;9.97;;;;;;;10.38;100.00;95758.88;5036498;28;20247;-70
2022/09/30 09:44:04;;;;;;;27.17;9.43;;;;;;;10.55;100.00;95756.81;5035175;28;20227;-70
2022/09/30 09:46:40;;;;;;;24.83;8.67;;;;;;;10.55;100.00;95759.44;5036488;28;20592;-70
2022/09/30 09:49:29;;;;;;;25.27;9.10;;;;;;;10.61;100.00;95761.34;5036400;28;20216;-70
2022/09/30 09:52:13;;;;;;;28.93;10.00;;;;;;;10.69;100.00;95755.94;5036089;28;20219;-70
2022/09/30 09:54:41;;;;;;;23.67;9.17;;;;;;;10.56;100.00;95758.47;5036292;28;20558;-70
2022/09/30 09:57:09;;;;;;;23.77;9.13;;;;;;;10.63;100.00;95772.53;5035788;28;20209;-70
2022/09/30 09:59:36;;;;;;;25.23;9.03;;;;;;;10.64;100.00;95774.97;5036274;28;20221;-70
2022/09/30 10:02:22;;;;;;;21.63;8.10;;;;;;;10.45;100.00;95780.00;5036130;28;20689;-70
2022/09/30 10:04:58;;;;;;;24.63;9.13;;;;;;;10.31;100.00;95794.06;5035926;28;20312;-70
2022/09/30 10:07:26;;;;;;;27.30;9.53;;;;;;;10.46;100.00;95793.03;5035891;28;20197;-70
2022/09/30 10:10:06;;;;;;;26.13;10.37;;;;;;;10.78;100.00;95800.44;5036287;28;20227;-70
2022/09/30 10:12:33;;;;;;;23.97;9.27;;;;;;;10.77;100.00;95797.97;5035168;28;20502;-70
2022/09/30 10:15:02;;;;;;;26.63;9.67;;;;;;;10.83;100.00;95799.84;5036245;28;20205;-70
2022/09/30 10:17:32;;;;;;;24.90;9.00;;;;;;;11.02;100.00;95806.13;5036566;28;20213;-70
2022/09/30 10:20:03;;;;;;;22.90;8.87;;;;;;;11.01;100.00;95801.84;5036842;28;20224;-70
2022/09/30 10:22:32;;;;;;;24.07;9.27;;;;;;;11.07;100.00;95808.19;5034793;28;20207;-70
2022/09/30 10:25:16;;;;;;;21.20;9.27;;;;;;;11.16;100.00;95810.50;5035878;28;20228;-70
2022/09/30 10:27:50;;;;;;;24.73;9.53;;;;;;;11.16;100.00;95802.59;5036350;28;20565;-70
2022/09/30 10:30:37;;;;;;;20.77;8.63;;;;;;;11.49;100.00;95806.28;5035769;28;20225;-70
2022/09/30 10:33:14;;;;;;;18.87;8.33;;;;;;;11.57;100.00;95811.47;5035411;28;20209;-70
2022/09/30 10:35:52;;;;;;;20.13;8.83;;;;;;;11.69;100.00;95821.25;5036133;28;20209;-70
2022/09/30 10:38:18;;;;;;;25.27;9.83;;;;;;;11.73;100.00;95824.34;5035603;28;20208;-70
2022/09/30 10:40:49;;;;;;;26.23;9.03;;;;;;;11.48;100.00;95823.13;5035827;28;20573;-70
2022/09/30 10:43:23;;;;;;;25.40;9.80;;;;;;;11.68;100.00;95832.00;5036139;28;20205;-70
2022/09/30 10:45:51;;;;;;;20.67;9.43;;;;;;;11.67;100.00;95833.00;5039484;28;20201;-70
2022/09/30 10:48:22;;;;;;;25.13;10.00;;;;;;;11.70;100.00;95822.09;5039496;28;20799;-70
2022/09/30 10:50:51;;;;;;;20.90;9.27;;;;;;;11.54;100.00;95819.75;5039906;28;20306;-70
2022/09/30 10:53:22;;;;;;;22.83;9.93;;;;;;;11.73;100.00;95822.50;5038783;28;20205;-70
2022/09/30 10:55:49;;;;;;;23.53;9.77;;;;;;;11.69;100.00;95823.09;5039493;28;20672;-70
2022/09/30 10:58:28;;;;;;;26.73;10.47;;;;;;;11.75;100.00;95815.22;5039614;28;20202;-70
2022/09/30 11:01:00;;;;;;;23.27;10.13;;;;;;;11.55;100.00;95819.53;5039470;28;20228;-70
2022/09/30 11:03:34;;;;;;;24.57;10.60;;;;;;;11.77;100.00;95815.00;5038371;28;20560;-70
2022/09/30 11:06:01;;;;;;;26.63;10.43;;;;;;;11.65;100.00;95813.94;5039275;28;20475;-70
2022/09/30 11:08:33;;;;;;;26.40;9.60;;;;;;;11.74;100.00;95808.28;5039346;28;20584;-70
2022/09/30 11:11:09;;;;;;;24.00;10.00;;;;;;;11.74;100.00;95807.50;5038538;28;20495;-70
2022/09/30 11:13:39;;;;;;;22.07;9.10;;;;;;;11.81;100.00;95805.69;5038789;28;20287;-70
2022/09/30 11:16:16;;;;;;;20.37;9.33;;;;;;;11.81;100.00;95808.34;5039560;28;20224;-70
2022/09/30 11:18:49;;;;;;;21.93;10.37;;;;;;;11.86;100.00;95806.75;5039050;28;20705;-70
2022/09/30 11:21:21;;;;;;;23.87;10.13;;;;;;;11.92;100.00;95805.16;5038638;28;20221;-70
2022/09/30 11:23:52;;;;;;;29.37;10.23;;;;;;;11.81;100.00;95803.06;5038861;28;20298;-70
2022/09/30 11:26:31;;;;;;;26.27;10.93;;;;;;;11.97;100.00;95818.59;5038878;28;20204;-70
2022/09/30 11:29:12;;;;;;;27.73;10.70;;;;;;;12.04;100.00;95819.44;5038483;28;20212;-70
2022/09/30 11:31:48;;;;;;;24.33;10.73;;;;;;;12.10;100.00;95818.66;5039913;28;20205;-70
2022/09/30 11:34:37;;;;;;;22.73;10.53;;;;;;;12.19;100.00;95819.13;5037833;28;20205;-70
2022/09/30 11:37:11;;;;;;;23.90;10.73;;;;;;;12.20;100.00;95828.63;5037833;28;21227;-70
2022/09/30 11:40:14;;;;;;;20.70;9.87;;;;;;;12.24;100.00;95831.72;5038775;28;20737;-70